Main page
METAR-TAF:

METAR-TAF

Airports :

Båtsfjord Airport

Båtsfjord, Norway

latitude: 70-38N, longitude: 029-44E, elevation: 10 m

Current weather observation

The report was made 20 minutes ago, at 09:50 UTC
Wind 14 kt from the North/Northeast
Temperature 0°C
Humidity 69%
Pressure 1022 hPa
Visibility 10 km or more
Scattered clouds at a height of 1800 ft
Broken clouds at a height of 2300 ft
showers in vicinity

METAR: ENBS 220950Z 02014KT 9999 VCSH SCT018 BKN023 00/M05 Q1022

Time: 12:10 (10:10 UTC)


TAF: missing

Weather observations and forecasts of more than 4000 airports (METAR and TAF reports).

The available stations are represented by yellow and red dots on the map.

Hover mouse over dot to see the name of the station.

Then click to see weather observations and forecasts.

To change the map : click on the green buttons with a black cross to zoom in, on the green button with a dash to zoom out, or on the green arrows for adjacent maps.


METAR-TAF: